Norwegian Dream — C6LG5 — position and weather

sailwx.info

Track history (hours):
 
Tides and Currents Weather Stations Pressure Air Temp Water Temp Dewpoint Dewpoint Depression Visibility Wind Speed Wind Dir Waves Ship Positions

Norwegian Dream

Operator: Norwegian Cruise Line

Last reported at 2020-Jan-17 18:00 UTC. Time now 2020-Jan-18 13:59 UTC.
Position N 26°24' E 120°54'.

Type: Ship. MMSI: 308272000.

Wind from 030 at 27 knots

Barometer 1024.0 mb
Air temperature 11.0 ° C
Visibility: greater than 5.4 NM
Dewpoint 11.0 ° C
Water temperature 13.0 ° C

Date/timePositionNaut miles runAvg speedWind from/ knotsBaromVisibWave heightAir tempDewpointWater temp
2020-Jan-17 18:00N 26°24' E 120°54'31113.0 030 / 271024.0 5.4 11.011.013.0
2020-Jan-16 18:00N 22°48' E 116°48'9212.8 360 / 121020.0 5.4 17.017.019.0
2020-Jan-16 10:47N 22°13' E 115°16'3013.3
2020-Jan-16 08:30N 22°08' E 114°43'36 8.9
2020-Jan-16 04:29N 22°18' E 114°06'0 0.0
2020-Jan-16 03:56N 22°18' E 114°06'0 0.0
2020-Jan-16 03:29N 22°18' E 114°06'0 0.1
2020-Jan-16 02:26N 22°18' E 114°06'0 0.1
2020-Jan-16 01:26N 22°18' E 114°06'0 0.0
2020-Jan-15 23:29N 22°18' E 114°06'3 2.8
2020-Jan-15 22:29N 22°15' E 114°07'2510.0
2020-Jan-15 20:00N 22°07' E 114°33'3 6.0
2020-Jan-15 19:30N 22°07' E 114°36'3 2.2
2020-Jan-15 18:00N 22°05' E 114°39'6488.8
2020-Jan-15 18:00N 22°00' E 114°36'12 3.0 090 / 391018.0 2.2 20.020.024.0
2020-Jan-15 13:48N 22°05' E 114°24'21 9.0
2020-Jan-15 11:31N 22°18' E 114°06'0 0.0
2020-Jan-15 09:29N 22°18' E 114°06'0 0.1
2020-Jan-15 08:26N 22°18' E 114°06'0 0.0
2020-Jan-15 04:56N 22°18' E 114°06'0 0.0
2020-Jan-15 03:29N 22°18' E 114°06'0 0.1
2020-Jan-15 02:29N 22°18' E 114°06'0 0.1
2020-Jan-15 01:29N 22°18' E 114°06'0 0.0
2020-Jan-14 23:59N 22°18' E 114°06'17 5.7
2020-Jan-14 21:00N 22°07' E 114°21'1810.9
2020-Jan-14 19:22N 22°04' E 114°40'5 6.0
2020-Jan-14 18:30N 22°01' E 114°44'3 5.3
2020-Jan-14 18:00N 22°02' E 114°46'3 2.2
2020-Jan-14 16:42N 22°02' E 114°49'13 7.3
2020-Jan-14 14:55N 22°03' E 114°35'3 7.6
2020-Jan-14 14:30N 22°04' E 114°32'11 9.4
2020-Jan-14 13:22N 22°06' E 114°21'15 9.2
2020-Jan-14 11:46N 22°14' E 114°08'413.5
2020-Jan-14 11:30N 22°18' E 114°06'0 0.6
2020-Jan-14 11:00N 22°18' E 114°06'0 0.0
2020-Jan-14 10:00N 22°18' E 114°06'0 0.0
2020-Jan-14 07:30N 22°18' E 114°06'0 0.0
2020-Jan-14 06:00N 22°18' E 114°06'0 0.0
2020-Jan-14 05:30N 22°18' E 114°06'0 0.0
2020-Jan-14 01:00N 22°18' E 114°06'22 4.9
2020-Jan-13 20:30N 22°07' E 114°27'10 4.1
2020-Jan-13 18:00N 22°04' E 114°38'5 5.0
2020-Jan-13 17:00N 21°59' E 114°40'33 6.6
2020-Jan-13 11:54N 22°14' E 114°08'4 3.6
2020-Jan-13 10:51N 22°18' E 114°06'0 0.0
2020-Jan-13 07:59N 22°18' E 114°06'0 0.0
2020-Jan-13 06:29N 22°18' E 114°06'0 0.0
2020-Jan-13 05:00N 22°18' E 114°06'0 0.1
2020-Jan-13 04:30N 22°18' E 114°06'0 0.1
2020-Jan-13 04:00N 22°18' E 114°06'0 0.1
2020-Jan-13 03:30N 22°18' E 114°06'0 0.0
2020-Jan-13 02:00N 22°18' E 114°06'0 0.0
2020-Jan-13 01:30N 22°18' E 114°06'0 0.0
2020-Jan-13 00:30N 22°18' E 114°06'24 5.9
2020-Jan-12 20:30N 22°07' E 114°29'16 8.1
2020-Jan-12 18:29N 22°05' E 114°46'2 3.6
2020-Jan-12 18:00N 22°06' E 114°48'4 5.9 060 / 191019.0 5.4 18.914.221.0
2020-Jan-12 17:15N 22°06' E 114°53'6 7.6
2020-Jan-12 16:30N 22°05' E 114°47'4 7.5
2020-Jan-12 16:00N 22°04' E 114°43'5 7.6
2020-Jan-12 15:22N 22°04' E 114°37'32 8.3
2020-Jan-12 11:30N 22°18' E 114°06'0 0.4
2020-Jan-12 10:31N 22°18' E 114°06'0 0.0
2020-Jan-12 08:53N 22°18' E 114°06'0 0.1
2020-Jan-12 08:30N 22°18' E 114°06'0 0.0
2020-Jan-12 06:59N 22°18' E 114°07'0 0.0
2020-Jan-12 02:55N 22°18' E 114°06'0 0.0
2020-Jan-12 00:59N 22°18' E 114°06'0 0.0
2020-Jan-11 23:59N 22°18' E 114°06'0 0.0
2020-Jan-11 22:56N 22°18' E 114°06'0 0.0
2020-Jan-11 22:29N 22°18' E 114°06'0 0.0
2020-Jan-11 21:29N 22°18' E 114°06'0 0.0
2020-Jan-11 20:56N 22°18' E 114°06'6 2.0
2020-Jan-11 18:00N 22°12' E 114°06'6 5.8 330 / 211017.0 5.4 17.4 9.321.0
2020-Jan-11 16:59N 22°18' E 114°06'0 0.0
2020-Jan-11 15:59N 22°18' E 114°06'0 0.0
2020-Jan-11 10:59N 22°18' E 114°06'1 0.3
2020-Jan-11 06:22N 22°17' E 114°07'0 0.0
2020-Jan-11 03:26N 22°17' E 114°07'0 0.0
2020-Jan-11 02:58N 22°17' E 114°07'0 0.0
2020-Jan-11 02:28N 22°17' E 114°07'0 0.0
2020-Jan-11 01:28N 22°17' E 114°07'0 0.0
2020-Jan-10 23:58N 22°17' E 114°07'0 0.0
2020-Jan-10 23:28N 22°17' E 114°07'5 0.9
2020-Jan-10 18:00N 22°12' E 114°06'510.0 130 / 41017.0 5.4 19.315.421.0
2020-Jan-10 17:28N 22°17' E 114°07'0 0.0
2020-Jan-10 16:58N 22°17' E 114°07'0 0.0
2020-Jan-10 15:29N 22°17' E 114°07'0 0.0
2020-Jan-10 12:29N 22°17' E 114°07'0 0.0
2020-Jan-10 10:29N 22°17' E 114°07'0 0.0
2020-Jan-10 08:17N 22°17' E 114°07'0 0.0
2020-Jan-10 07:59N 22°17' E 114°07'0 0.0
2020-Jan-10 07:29N 22°17' E 114°07'0 0.0
2020-Jan-10 06:59N 22°17' E 114°07'0 0.0
2020-Jan-10 06:23N 22°17' E 114°07'1 0.3
2020-Jan-10 01:28N 22°18' E 114°06'0 0.1
2020-Jan-10 00:58N 22°18' E 114°06'0 0.0
2020-Jan-09 22:31N 22°18' E 114°06'33 7.3
2020-Jan-09 18:00N 22°00' E 114°36'816.8 060 / 191018.0 5.4 20.216.823.0
2020-Jan-09 17:29N 22°04' E 114°44'15 4.9
2020-Jan-09 14:30N 22°05' E 114°28'24 4.7
2020-Jan-09 09:28N 22°18' E 114°06'0 0.1
2020-Jan-09 08:55N 22°18' E 114°06'0 0.1
2020-Jan-09 08:22N 22°18' E 114°06'0 0.0
2020-Jan-09 03:28N 22°18' E 114°06'0 0.0
2020-Jan-09 02:28N 22°18' E 114°06'18 3.3
2020-Jan-08 21:00N 22°07' E 114°22'713.6
2020-Jan-08 20:30N 22°07' E 114°29'10 9.7
2020-Jan-08 19:30N 22°06' E 114°40'4 7.0
2020-Jan-08 19:00N 22°05' E 114°43'4 3.6
2020-Jan-08 18:00N 22°02' E 114°44'3182.9
2020-Jan-08 18:00N 22°00' E 114°42'3 6.5 080 / 271019.0 5.4 20.114.422.0
2020-Jan-08 17:30N 22°03' E 114°40'3 1.3
2020-Jan-08 15:30N 22°04' E 114°38'4 7.5
2020-Jan-08 14:58N 22°04' E 114°34'7 7.4
2020-Jan-08 14:00N 22°05' E 114°26'9 7.3
2020-Jan-08 12:48N 22°07' E 114°17'1411.2
2020-Jan-08 11:31N 22°18' E 114°06'0 0.7
2020-Jan-08 10:56N 22°18' E 114°06'0 0.0
2020-Jan-08 09:30N 22°18' E 114°06'0 0.0
2020-Jan-08 09:00N 22°18' E 114°06'0 0.0
2020-Jan-08 08:30N 22°18' E 114°06'0 0.1
2020-Jan-08 08:00N 22°18' E 114°06'0 0.1
2020-Jan-08 07:30N 22°18' E 114°06'0 0.1
2020-Jan-08 06:30N 22°18' E 114°06'0 0.0
2020-Jan-08 05:30N 22°18' E 114°06'0 0.1
2020-Jan-08 05:00N 22°18' E 114°06'0 0.0
2020-Jan-08 03:30N 22°18' E 114°06'0 0.0
2020-Jan-08 01:54N 22°18' E 114°06'0 0.1
2020-Jan-08 01:00N 22°18' E 114°06'0 0.0
2020-Jan-07 23:30N 22°18' E 114°06'18 7.1
2020-Jan-07 20:57N 22°08' E 114°23'15 5.8
2020-Jan-07 18:21N 22°04' E 114°38'411.8
2020-Jan-07 18:00N 22°00' E 114°36'   020 / 61020.0 5.4 20.618.222.0
Track history (hours):
 
Tides and Currents Weather Stations Pressure Air Temp Water Temp Dewpoint Dewpoint Depression Visibility Wind Speed Wind Dir Waves Ship Positions

Norwegian Dream

Operator: Norwegian Cruise Line

Last reported at 2020-Jan-17 18:00 UTC. Time now 2020-Jan-18 13:59 UTC.
Position N 26°24' E 120°54'.

Type: Ship. MMSI: 308272000.

Wind from 030 at 27 knots

Barometer 1024.0 mb
Air temperature 11.0 ° C
Visibility: greater than 5.4 NM
Dewpoint 11.0 ° C
Water temperature 13.0 ° C

Date/timePositionNaut miles runAvg speedWind from/ knotsBaromVisibWave heightAir tempDewpointWater temp
2020-Jan-17 18:00N 26°24' E 120°54'31113.0 030 / 271024.0 5.4 11.011.013.0
2020-Jan-16 18:00N 22°48' E 116°48'9212.8 360 / 121020.0 5.4 17.017.019.0
2020-Jan-16 10:47N 22°13' E 115°16'3013.3
2020-Jan-16 08:30N 22°08' E 114°43'36 8.9
2020-Jan-16 04:29N 22°18' E 114°06'0 0.0
2020-Jan-16 03:56N 22°18' E 114°06'0 0.0
2020-Jan-16 03:29N 22°18' E 114°06'0 0.1
2020-Jan-16 02:26N 22°18' E 114°06'0 0.1
2020-Jan-16 01:26N 22°18' E 114°06'0 0.0
2020-Jan-15 23:29N 22°18' E 114°06'3 2.8
2020-Jan-15 22:29N 22°15' E 114°07'2510.0
2020-Jan-15 20:00N 22°07' E 114°33'3 6.0
2020-Jan-15 19:30N 22°07' E 114°36'3 2.2
2020-Jan-15 18:00N 22°05' E 114°39'6488.8
2020-Jan-15 18:00N 22°00' E 114°36'12 3.0 090 / 391018.0 2.2 20.020.024.0
2020-Jan-15 13:48N 22°05' E 114°24'21 9.0
2020-Jan-15 11:31N 22°18' E 114°06'0 0.0
2020-Jan-15 09:29N 22°18' E 114°06'0 0.1
2020-Jan-15 08:26N 22°18' E 114°06'0 0.0
2020-Jan-15 04:56N 22°18' E 114°06'0 0.0
2020-Jan-15 03:29N 22°18' E 114°06'0 0.1
2020-Jan-15 02:29N 22°18' E 114°06'0 0.1
2020-Jan-15 01:29N 22°18' E 114°06'0 0.0
2020-Jan-14 23:59N 22°18' E 114°06'17 5.7
2020-Jan-14 21:00N 22°07' E 114°21'1810.9
2020-Jan-14 19:22N 22°04' E 114°40'5 6.0
2020-Jan-14 18:30N 22°01' E 114°44'3 5.3
2020-Jan-14 18:00N 22°02' E 114°46'3 2.2
2020-Jan-14 16:42N 22°02' E 114°49'13 7.3
2020-Jan-14 14:55N 22°03' E 114°35'3 7.6
2020-Jan-14 14:30N 22°04' E 114°32'11 9.4
2020-Jan-14 13:22N 22°06' E 114°21'15 9.2
2020-Jan-14 11:46N 22°14' E 114°08'413.5
2020-Jan-14 11:30N 22°18' E 114°06'0 0.6
2020-Jan-14 11:00N 22°18' E 114°06'0 0.0
2020-Jan-14 10:00N 22°18' E 114°06'0 0.0
2020-Jan-14 07:30N 22°18' E 114°06'0 0.0
2020-Jan-14 06:00N 22°18' E 114°06'0 0.0
2020-Jan-14 05:30N 22°18' E 114°06'0 0.0
2020-Jan-14 01:00N 22°18' E 114°06'22 4.9
2020-Jan-13 20:30N 22°07' E 114°27'10 4.1
2020-Jan-13 18:00N 22°04' E 114°38'5 5.0
2020-Jan-13 17:00N 21°59' E 114°40'33 6.6
2020-Jan-13 11:54N 22°14' E 114°08'4 3.6
2020-Jan-13 10:51N 22°18' E 114°06'0 0.0
2020-Jan-13 07:59N 22°18' E 114°06'0 0.0
2020-Jan-13 06:29N 22°18' E 114°06'0 0.0
2020-Jan-13 05:00N 22°18' E 114°06'0 0.1
2020-Jan-13 04:30N 22°18' E 114°06'0 0.1
2020-Jan-13 04:00N 22°18' E 114°06'0 0.1
2020-Jan-13 03:30N 22°18' E 114°06'0 0.0
2020-Jan-13 02:00N 22°18' E 114°06'0 0.0
2020-Jan-13 01:30N 22°18' E 114°06'0 0.0
2020-Jan-13 00:30N 22°18' E 114°06'24 5.9
2020-Jan-12 20:30N 22°07' E 114°29'16 8.1
2020-Jan-12 18:29N 22°05' E 114°46'2 3.6
2020-Jan-12 18:00N 22°06' E 114°48'4 5.9 060 / 191019.0 5.4 18.914.221.0
2020-Jan-12 17:15N 22°06' E 114°53'6 7.6
2020-Jan-12 16:30N 22°05' E 114°47'4 7.5
2020-Jan-12 16:00N 22°04' E 114°43'5 7.6
2020-Jan-12 15:22N 22°04' E 114°37'32 8.3
2020-Jan-12 11:30N 22°18' E 114°06'0 0.4
2020-Jan-12 10:31N 22°18' E 114°06'0 0.0
2020-Jan-12 08:53N 22°18' E 114°06'0 0.1
2020-Jan-12 08:30N 22°18' E 114°06'0 0.0
2020-Jan-12 06:59N 22°18' E 114°07'0 0.0
2020-Jan-12 02:55N 22°18' E 114°06'0 0.0
2020-Jan-12 00:59N 22°18' E 114°06'0 0.0
2020-Jan-11 23:59N 22°18' E 114°06'0 0.0
2020-Jan-11 22:56N 22°18' E 114°06'0 0.0
2020-Jan-11 22:29N 22°18' E 114°06'0 0.0
2020-Jan-11 21:29N 22°18' E 114°06'0 0.0
2020-Jan-11 20:56N 22°18' E 114°06'6 2.0
2020-Jan-11 18:00N 22°12' E 114°06'6 5.8 330 / 211017.0 5.4 17.4 9.321.0
2020-Jan-11 16:59N 22°18' E 114°06'0 0.0
2020-Jan-11 15:59N 22°18' E 114°06'0 0.0
2020-Jan-11 10:59N 22°18' E 114°06'1 0.3
2020-Jan-11 06:22N 22°17' E 114°07'0 0.0
2020-Jan-11 03:26N 22°17' E 114°07'0 0.0
2020-Jan-11 02:58N 22°17' E 114°07'0 0.0
2020-Jan-11 02:28N 22°17' E 114°07'0 0.0
2020-Jan-11 01:28N 22°17' E 114°07'0 0.0
2020-Jan-10 23:58N 22°17' E 114°07'0 0.0
2020-Jan-10 23:28N 22°17' E 114°07'5 0.9
2020-Jan-10 18:00N 22°12' E 114°06'510.0 130 / 41017.0 5.4 19.315.421.0
2020-Jan-10 17:28N 22°17' E 114°07'0 0.0
2020-Jan-10 16:58N 22°17' E 114°07'0 0.0
2020-Jan-10 15:29N 22°17' E 114°07'0 0.0
2020-Jan-10 12:29N 22°17' E 114°07'0 0.0
2020-Jan-10 10:29N 22°17' E 114°07'0 0.0
2020-Jan-10 08:17N 22°17' E 114°07'0 0.0
2020-Jan-10 07:59N 22°17' E 114°07'0 0.0
2020-Jan-10 07:29N 22°17' E 114°07'0 0.0
2020-Jan-10 06:59N 22°17' E 114°07'0 0.0
2020-Jan-10 06:23N 22°17' E 114°07'1 0.3
2020-Jan-10 01:28N 22°18' E 114°06'0 0.1
2020-Jan-10 00:58N 22°18' E 114°06'0 0.0
2020-Jan-09 22:31N 22°18' E 114°06'33 7.3
2020-Jan-09 18:00N 22°00' E 114°36'816.8 060 / 191018.0 5.4 20.216.823.0
2020-Jan-09 17:29N 22°04' E 114°44'15 4.9
2020-Jan-09 14:30N 22°05' E 114°28'24 4.7
2020-Jan-09 09:28N 22°18' E 114°06'0 0.1
2020-Jan-09 08:55N 22°18' E 114°06'0 0.1
2020-Jan-09 08:22N 22°18' E 114°06'0 0.0
2020-Jan-09 03:28N 22°18' E 114°06'0 0.0
2020-Jan-09 02:28N 22°18' E 114°06'18 3.3
2020-Jan-08 21:00N 22°07' E 114°22'713.6
2020-Jan-08 20:30N 22°07' E 114°29'10 9.7
2020-Jan-08 19:30N 22°06' E 114°40'4 7.0
2020-Jan-08 19:00N 22°05' E 114°43'4 3.6
2020-Jan-08 18:00N 22°02' E 114°44'3182.9
2020-Jan-08 18:00N 22°00' E 114°42'3 6.5 080 / 271019.0 5.4 20.114.422.0
2020-Jan-08 17:30N 22°03' E 114°40'3 1.3
2020-Jan-08 15:30N 22°04' E 114°38'4 7.5
2020-Jan-08 14:58N 22°04' E 114°34'7 7.4
2020-Jan-08 14:00N 22°05' E 114°26'9 7.3
2020-Jan-08 12:48N 22°07' E 114°17'1411.2
2020-Jan-08 11:31N 22°18' E 114°06'0 0.7
2020-Jan-08 10:56N 22°18' E 114°06'0 0.0
2020-Jan-08 09:30N 22°18' E 114°06'0 0.0
2020-Jan-08 09:00N 22°18' E 114°06'0 0.0
2020-Jan-08 08:30N 22°18' E 114°06'0 0.1
2020-Jan-08 08:00N 22°18' E 114°06'0 0.1
2020-Jan-08 07:30N 22°18' E 114°06'0 0.1
2020-Jan-08 06:30N 22°18' E 114°06'0 0.0
2020-Jan-08 05:30N 22°18' E 114°06'0 0.1
2020-Jan-08 05:00N 22°18' E 114°06'0 0.0
2020-Jan-08 03:30N 22°18' E 114°06'0 0.0
2020-Jan-08 01:54N 22°18' E 114°06'0 0.1
2020-Jan-08 01:00N 22°18' E 114°06'0 0.0
2020-Jan-07 23:30N 22°18' E 114°06'18 7.1
2020-Jan-07 20:57N 22°08' E 114°23'15 5.8
2020-Jan-07 18:21N 22°04' E 114°38'411.8
2020-Jan-07 18:00N 22°00' E 114°36'   020 / 61020.0 5.4 20.618.222.0

Dump ship's entire track history